createdAt,value
2022-11-29T00:01:43.666Z,44.03
2022-11-29T00:04:11.488Z,50.30
2022-11-29T00:06:38.530Z,53.00
2022-11-29T00:09:11.844Z,41.60
2022-11-29T00:11:58.308Z,41.47
2022-11-29T00:14:26.490Z,41.80
2022-11-29T00:17:02.042Z,41.90
2022-11-29T00:19:32.453Z,45.60
2022-11-29T00:22:00.220Z,42.77
2022-11-29T00:24:31.812Z,44.30
2022-11-29T00:26:58.836Z,45.47
2022-11-29T00:29:26.887Z,47.20
2022-11-29T00:31:53.663Z,43.33
2022-11-29T00:34:20.966Z,41.80
2022-11-29T00:36:49.371Z,42.57
2022-11-29T00:39:16.491Z,45.97
2022-11-29T00:41:43.499Z,52.57
2022-11-29T00:44:15.282Z,45.13
2022-11-29T00:46:45.291Z,48.97
2022-11-29T00:49:12.190Z,48.17
2022-11-29T00:51:39.025Z,48.13
2022-11-29T00:54:06.029Z,46.10
2022-11-29T00:56:32.907Z,45.73
2022-11-29T00:58:59.647Z,46.13
2022-11-29T01:01:29.677Z,43.57
2022-11-29T01:03:56.549Z,33.83
2022-11-29T01:06:25.847Z,41.67
2022-11-29T01:08:53.955Z,43.77
2022-11-29T01:11:24.074Z,33.10
2022-11-29T01:13:54.484Z,37.23
2022-11-29T01:16:21.464Z,42.33
2022-11-29T01:18:48.560Z,47.17
2022-11-29T01:21:19.072Z,39.70
2022-11-29T01:23:47.459Z,43.13
2022-11-29T01:26:16.739Z,42.70
2022-11-29T01:28:46.770Z,44.43
2022-11-29T01:31:17.251Z,48.07
2022-11-29T01:33:47.687Z,45.47
2022-11-29T01:36:15.122Z,40.20
2022-11-29T01:38:48.236Z,36.97
2022-11-29T01:41:24.617Z,40.43
2022-11-29T01:44:14.664Z,39.53
2022-11-29T01:46:43.792Z,37.03
2022-11-29T01:49:19.258Z,39.90
2022-11-29T01:52:00.998Z,45.33
2022-11-29T01:54:29.927Z,47.47
2022-11-29T01:56:59.883Z,37.27
2022-11-29T01:59:29.740Z,36.73
2022-11-29T02:02:06.510Z,34.93
2022-11-29T02:04:35.658Z,42.87
2022-11-29T02:07:03.297Z,70.30
2022-11-29T02:09:30.356Z,50.67
2022-11-29T02:12:15.054Z,69.87
2022-11-29T02:15:05.491Z,73.03
2022-11-29T02:17:57.508Z,161.60
2022-11-29T02:21:00.969Z,69.63
2022-11-29T02:24:24.790Z,100.20
2022-11-29T02:27:13.249Z,57.53
2022-11-29T02:30:05.406Z,50.27
2022-11-29T02:32:41.197Z,77.43
2022-11-29T02:35:25.931Z,80.77
2022-11-29T02:38:18.853Z,110.30
2022-11-29T02:41:15.932Z,93.30
2022-11-29T02:44:22.742Z,68.60
2022-11-29T02:47:06.578Z,93.90
2022-11-29T02:49:58.306Z,122.10
2022-11-29T02:52:49.987Z,103.67
2022-11-29T02:55:28.864Z,92.37
2022-11-29T02:58:20.799Z,53.77
2022-11-29T03:01:10.812Z,66.87
2022-11-29T03:04:07.452Z,78.40
2022-11-29T03:07:03.214Z,53.00
2022-11-29T03:09:40.703Z,60.77
2022-11-29T03:12:17.649Z,45.90
2022-11-29T03:15:09.909Z,61.57
2022-11-29T03:17:57.679Z,46.67
2022-11-29T03:21:06.576Z,55.67
2022-11-29T03:23:50.951Z,59.80
2022-11-29T03:26:41.345Z,54.33
2022-11-29T03:29:22.930Z,43.00
2022-11-29T03:32:13.782Z,51.90
2022-11-29T03:34:46.766Z,46.77
2022-11-29T03:37:18.496Z,57.63
2022-11-29T03:39:52.266Z,53.87
2022-11-29T03:42:50.950Z,54.13
2022-11-29T03:45:42.581Z,48.00
2022-11-29T03:48:18.583Z,67.33
2022-11-29T03:51:16.156Z,63.30
2022-11-29T03:53:58.357Z,87.33
2022-11-29T03:56:35.497Z,47.83
2022-11-29T03:59:12.273Z,54.77
2022-11-29T04:02:14.128Z,84.73
2022-11-29T04:04:40.980Z,72.33
2022-11-29T04:07:47.842Z,87.53
2022-11-29T04:10:21.090Z,54.03
2022-11-29T04:13:30.590Z,57.53
2022-11-29T04:16:32.514Z,77.87
2022-11-29T04:19:30.336Z,100.47
2022-11-29T04:22:23.498Z,81.77
2022-11-29T04:25:16.437Z,80.60
2022-11-29T04:28:09.575Z,49.50
2022-11-29T04:31:22.810Z,76.97
2022-11-29T04:33:58.790Z,60.67
2022-11-29T04:36:59.784Z,106.10
2022-11-29T04:39:44.327Z,71.83
2022-11-29T04:42:28.537Z,84.63
2022-11-29T04:45:16.510Z,121.37
2022-11-29T04:48:30.855Z,62.00
2022-11-29T04:51:13.056Z,115.27
2022-11-29T04:53:51.150Z,212.97
2022-11-29T04:56:43.293Z,193.83
2022-11-29T04:59:41.955Z,131.40
2022-11-29T05:02:39.677Z,172.07
2022-11-29T05:05:34.294Z,187.67
2022-11-29T05:08:16.188Z,118.53
2022-11-29T05:11:14.280Z,154.63
2022-11-29T05:14:15.392Z,114.17
2022-11-29T05:17:08.781Z,109.63
2022-11-29T05:20:16.940Z,144.77
2022-11-29T05:23:25.961Z,138.47
2022-11-29T05:26:09.152Z,114.60
2022-11-29T05:28:47.210Z,64.60
2022-11-29T05:31:28.803Z,114.20
2022-11-29T05:33:58.840Z,89.97
2022-11-29T05:36:55.122Z,120.37
2022-11-29T05:39:30.265Z,98.20
2022-11-29T05:42:00.098Z,97.37
2022-11-29T05:44:29.596Z,113.63
2022-11-29T05:46:59.389Z,97.30
2022-11-29T05:49:50.539Z,76.63
2022-11-29T05:52:29.825Z,94.03
2022-11-29T05:55:24.838Z,107.63
2022-11-29T05:58:30.772Z,104.90
2022-11-29T06:01:16.953Z,92.20
2022-11-29T06:04:01.850Z,116.13
2022-11-29T06:06:46.904Z,92.97
2022-11-29T06:09:19.714Z,89.63
2022-11-29T06:11:51.974Z,116.10
2022-11-29T06:14:34.257Z,97.27
2022-11-29T06:17:34.252Z,110.43
2022-11-29T06:20:23.495Z,83.30
2022-11-29T06:23:29.122Z,96.27
2022-11-29T06:26:19.317Z,78.67
2022-11-29T06:29:20.019Z,77.30
2022-11-29T06:31:52.408Z,70.33
2022-11-29T06:34:31.164Z,56.70
2022-11-29T06:37:09.138Z,81.20
2022-11-29T06:39:36.184Z,92.73
2022-11-29T06:42:02.927Z,92.00
2022-11-29T06:44:29.927Z,69.40
2022-11-29T06:47:09.077Z,92.97
2022-11-29T06:49:58.564Z,75.43
2022-11-29T06:52:40.099Z,78.77
2022-11-29T06:55:31.489Z,115.67
2022-11-29T06:58:32.885Z,77.40
2022-11-29T07:01:46.020Z,108.07
2022-11-29T07:04:32.555Z,120.97
2022-11-29T07:06:59.661Z,176.77
2022-11-29T07:09:33.074Z,145.10
2022-11-29T07:12:03.306Z,144.20
2022-11-29T07:14:30.350Z,175.47
2022-11-29T07:17:37.808Z,111.10
2022-11-29T07:20:15.940Z,161.60
2022-11-29T07:23:22.227Z,147.93
2022-11-29T07:25:55.026Z,99.83
2022-11-29T07:28:34.084Z,136.33
2022-11-29T07:31:35.392Z,120.37
2022-11-29T07:34:30.228Z,154.50
2022-11-29T07:37:26.102Z,125.47
2022-11-29T07:40:23.713Z,149.07
2022-11-29T07:43:21.867Z,114.57
2022-11-29T07:45:48.899Z,107.07
2022-11-29T07:48:17.279Z,132.70
2022-11-29T07:50:45.069Z,125.83
2022-11-29T07:53:19.225Z,93.23
2022-11-29T07:55:46.950Z,157.90
2022-11-29T07:58:14.793Z,121.40
2022-11-29T08:00:42.490Z,92.97
2022-11-29T08:03:10.194Z,132.93
2022-11-29T08:05:38.576Z,116.47
2022-11-29T08:08:05.885Z,108.10
2022-11-29T08:10:35.273Z,94.53
2022-11-29T08:13:02.058Z,86.63
2022-11-29T08:15:31.870Z,103.23
2022-11-29T08:17:58.659Z,105.17
2022-11-29T08:20:27.669Z,103.17
2022-11-29T08:22:59.257Z,138.43
2022-11-29T08:25:27.481Z,131.97
2022-11-29T08:27:54.837Z,112.97
2022-11-29T08:30:22.908Z,124.83
2022-11-29T08:32:51.814Z,138.60
2022-11-29T08:35:20.276Z,104.43
2022-11-29T08:37:47.522Z,132.50
2022-11-29T08:40:15.239Z,90.20
2022-11-29T08:42:42.080Z,112.73
2022-11-29T08:45:09.877Z,99.13
2022-11-29T08:47:37.965Z,114.23
2022-11-29T08:50:04.843Z,99.50
2022-11-29T08:52:56.396Z,74.30
2022-11-29T08:55:26.460Z,112.77
2022-11-29T08:57:55.155Z,87.23
2022-11-29T09:00:22.087Z,88.07
2022-11-29T09:02:49.093Z,98.77
2022-11-29T09:05:15.938Z,95.03
2022-11-29T09:07:46.990Z,85.33
2022-11-29T09:10:13.859Z,96.07
2022-11-29T09:12:41.274Z,95.40
2022-11-29T09:15:10.990Z,80.03
2022-11-29T09:17:37.897Z,82.23
2022-11-29T09:20:05.950Z,80.63
2022-11-29T09:22:32.832Z,71.07
2022-11-29T09:25:00.867Z,87.27
2022-11-29T09:27:27.640Z,75.93
2022-11-29T09:29:57.618Z,75.37
2022-11-29T09:32:24.597Z,60.93
2022-11-29T09:34:57.419Z,66.57
2022-11-29T09:37:24.150Z,53.17
2022-11-29T09:39:50.849Z,54.67
2022-11-29T09:42:53.310Z,52.70
2022-11-29T09:45:28.804Z,56.20
2022-11-29T09:48:16.455Z,42.10
2022-11-29T09:51:24.182Z,45.70
2022-11-29T09:54:21.883Z,48.27
2022-11-29T09:56:51.577Z,43.10
2022-11-29T09:59:44.877Z,52.13
2022-11-29T10:02:38.056Z,45.60
2022-11-29T10:05:34.330Z,42.80
2022-11-29T10:08:08.852Z,47.20
2022-11-29T10:10:40.542Z,51.90
2022-11-29T10:13:11.465Z,47.53
2022-11-29T10:15:42.444Z,51.07
2022-11-29T10:18:28.808Z,50.00
2022-11-29T10:21:00.749Z,50.47
2022-11-29T10:23:36.481Z,52.67
2022-11-29T10:26:08.041Z,46.17
2022-11-29T10:28:37.076Z,45.57
2022-11-29T10:31:18.832Z,45.13
2022-11-29T10:33:46.707Z,49.43
2022-11-29T10:36:33.971Z,38.43
2022-11-29T10:39:14.745Z,37.00
2022-11-29T10:41:42.053Z,40.10
2022-11-29T10:44:13.152Z,42.23
2022-11-29T10:46:40.012Z,43.57
2022-11-29T10:49:13.531Z,41.90
2022-11-29T10:51:40.378Z,42.27
2022-11-29T10:54:46.428Z,45.23
2022-11-29T10:57:19.163Z,48.77
2022-11-29T11:00:00.406Z,48.73
2022-11-29T11:02:33.529Z,40.80
2022-11-29T11:05:02.447Z,42.83
2022-11-29T11:07:35.097Z,48.07
2022-11-29T11:10:30.800Z,47.60
2022-11-29T11:13:06.794Z,46.37
2022-11-29T11:15:33.855Z,47.57
2022-11-29T11:18:07.173Z,38.80
2022-11-29T11:20:40.698Z,37.80
2022-11-29T11:23:30.973Z,36.20
2022-11-29T11:26:09.893Z,43.80
2022-11-29T11:28:45.619Z,42.23
2022-11-29T11:31:13.669Z,42.07
2022-11-29T11:33:45.652Z,43.67
2022-11-29T11:36:21.801Z,37.07
2022-11-29T11:38:55.854Z,44.30
2022-11-29T11:41:54.014Z,42.60
2022-11-29T11:47:31.635Z,55.07
2022-11-29T11:50:04.198Z,50.43
2022-11-29T11:52:50.032Z,45.00
2022-11-29T11:55:29.498Z,45.30
2022-11-29T11:58:10.291Z,40.37
2022-11-29T12:03:49.959Z,46.03
2022-11-29T12:06:34.468Z,48.20
2022-11-29T12:09:19.569Z,54.47
2022-11-29T12:12:20.012Z,59.83
2022-11-29T12:14:56.008Z,51.37
2022-11-29T12:17:34.500Z,47.57
2022-11-29T12:20:28.289Z,36.53
2022-11-29T12:23:13.461Z,48.00
2022-11-29T12:25:47.592Z,44.73
2022-11-29T12:28:20.385Z,52.47
2022-11-29T12:31:07.167Z,46.03
2022-11-29T12:33:39.631Z,43.00
2022-11-29T12:36:14.395Z,54.40
2022-11-29T12:39:19.579Z,54.07
2022-11-29T12:41:54.149Z,47.83
2022-11-29T12:44:38.276Z,59.33
2022-11-29T12:47:36.601Z,50.63
2022-11-29T12:50:37.023Z,55.47
2022-11-29T12:53:47.159Z,53.40
2022-11-29T12:56:30.518Z,57.90
2022-11-29T12:59:30.227Z,59.90
2022-11-29T13:02:31.368Z,61.23
2022-11-29T13:05:12.789Z,71.90
2022-11-29T13:07:57.743Z,62.93
2022-11-29T13:10:45.742Z,59.57
2022-11-29T13:13:27.377Z,65.63
2022-11-29T13:16:08.496Z,58.67
2022-11-29T13:18:46.540Z,55.63
2022-11-29T13:21:17.289Z,67.13
2022-11-29T13:24:08.285Z,64.17
2022-11-29T13:26:37.922Z,55.47
2022-11-29T13:29:06.088Z,59.10
2022-11-29T13:31:33.823Z,67.43
2022-11-29T13:34:28.255Z,64.97
2022-11-29T13:36:57.952Z,55.10
2022-11-29T13:39:55.181Z,61.90
2022-11-29T13:42:36.866Z,59.23
2022-11-29T13:45:16.125Z,59.47
2022-11-29T13:47:51.715Z,65.63
2022-11-29T13:50:37.218Z,59.53
2022-11-29T13:53:18.851Z,59.97
2022-11-29T13:56:01.938Z,67.50
2022-11-29T13:58:28.799Z,59.73
2022-11-29T14:01:09.867Z,59.73
2022-11-29T14:03:40.316Z,57.37
2022-11-29T14:06:11.211Z,62.70
2022-11-29T14:11:44.265Z,59.87
2022-11-29T14:14:20.112Z,67.17
2022-11-29T14:16:51.561Z,59.80
2022-11-29T14:19:23.212Z,55.10
2022-11-29T14:21:59.122Z,56.13
2022-11-29T14:24:37.912Z,52.97
2022-11-29T14:27:10.264Z,57.77
2022-11-29T14:29:55.771Z,63.37
2022-11-29T14:32:26.444Z,60.80
2022-11-29T14:35:11.470Z,54.20
2022-11-29T14:37:51.041Z,53.43
2022-11-29T14:41:11.955Z,54.90
2022-11-29T14:43:43.096Z,55.40
2022-11-29T14:46:15.729Z,49.90
2022-11-29T14:48:59.067Z,54.30
2022-11-29T14:51:29.327Z,53.23
2022-11-29T14:54:14.869Z,58.00
2022-11-29T14:56:45.844Z,57.97
2022-11-29T14:59:50.001Z,55.47
2022-11-29T15:02:33.437Z,57.17
2022-11-29T15:05:22.500Z,62.83
2022-11-29T15:08:01.523Z,49.77
2022-11-29T15:10:33.148Z,55.37
2022-11-29T15:13:01.227Z,55.70
2022-11-29T15:15:54.553Z,57.57
2022-11-29T15:18:48.701Z,50.37
2022-11-29T15:21:21.073Z,53.27
2022-11-29T15:23:47.906Z,56.00
2022-11-29T15:26:18.354Z,54.00
2022-11-29T15:28:45.600Z,59.47
2022-11-29T15:31:18.061Z,52.43
2022-11-29T15:33:50.631Z,56.90
2022-11-29T15:36:23.330Z,58.77
2022-11-29T15:38:55.173Z,58.83
2022-11-29T15:41:34.737Z,56.33
2022-11-29T15:44:04.803Z,51.77
2022-11-29T15:46:33.835Z,53.80
2022-11-29T15:49:24.387Z,54.97
2022-11-29T15:51:56.849Z,49.33
2022-11-29T15:54:38.558Z,52.93
2022-11-29T15:57:26.537Z,49.70
2022-11-29T15:59:58.267Z,50.83
2022-11-29T16:02:33.875Z,45.40
2022-11-29T16:05:10.119Z,50.77
2022-11-29T16:07:42.788Z,50.43
2022-11-29T16:10:24.987Z,54.00
2022-11-29T16:12:59.992Z,56.27
2022-11-29T16:15:38.823Z,49.50
2022-11-29T16:18:12.577Z,59.93
2022-11-29T16:20:39.675Z,59.43
2022-11-29T16:23:12.134Z,65.00
2022-11-29T16:25:59.151Z,56.17
2022-11-29T16:28:33.138Z,51.70
2022-11-29T16:31:00.209Z,55.30
2022-11-29T16:33:27.438Z,60.63
2022-11-29T16:36:18.911Z,55.13
2022-11-29T16:38:47.747Z,56.07
2022-11-29T16:41:31.534Z,45.97
2022-11-29T16:43:59.289Z,48.00
2022-11-29T16:46:30.253Z,47.83
2022-11-29T16:48:59.199Z,48.47
2022-11-29T16:51:32.854Z,54.50
2022-11-29T16:54:23.356Z,55.27
2022-11-29T16:56:51.706Z,55.13
2022-11-29T16:59:25.944Z,53.93
2022-11-29T17:01:55.276Z,51.73
2022-11-29T17:04:25.617Z,51.97
2022-11-29T17:06:54.744Z,50.97
2022-11-29T17:09:30.878Z,48.23
2022-11-29T17:12:00.957Z,51.67
2022-11-29T17:14:31.683Z,49.57
2022-11-29T17:17:00.803Z,55.33
2022-11-29T17:19:29.229Z,50.10
2022-11-29T17:21:56.040Z,53.33
2022-11-29T17:24:23.712Z,58.17
2022-11-29T17:26:53.063Z,60.57
2022-11-29T17:29:19.982Z,70.63
2022-11-29T17:31:50.204Z,67.00
2022-11-29T17:34:17.265Z,74.93
2022-11-29T17:36:45.177Z,79.20
2022-11-29T17:39:11.925Z,58.80
2022-11-29T17:41:38.676Z,73.13
2022-11-29T17:44:05.447Z,58.17
2022-11-29T17:46:35.167Z,63.20
2022-11-29T17:49:04.961Z,58.17
2022-11-29T17:54:19.805Z,58.73
2022-11-29T17:56:46.496Z,56.33
2022-11-29T17:59:13.200Z,61.80
2022-11-29T18:01:40.150Z,63.03
2022-11-29T18:04:08.383Z,55.93
2022-11-29T18:06:37.709Z,53.57
2022-11-29T18:09:05.984Z,61.97
2022-11-29T18:11:44.996Z,60.27
2022-11-29T18:14:16.717Z,63.20
2022-11-29T18:16:45.569Z,69.03
2022-11-29T18:19:14.960Z,68.13
2022-11-29T18:21:42.001Z,65.93
2022-11-29T18:24:09.113Z,68.97
2022-11-29T18:26:36.764Z,84.33
2022-11-29T18:29:05.580Z,93.23
2022-11-29T18:31:37.699Z,76.70
2022-11-29T18:34:13.014Z,115.83
2022-11-29T18:36:47.010Z,108.10
2022-11-29T18:39:18.731Z,81.83
2022-11-29T18:41:49.914Z,107.40
2022-11-29T18:44:19.383Z,118.03
2022-11-29T18:46:52.330Z,88.67
2022-11-29T18:49:19.152Z,76.30
2022-11-29T18:51:46.930Z,110.27
2022-11-29T18:54:15.343Z,81.13
2022-11-29T18:56:43.323Z,96.30
2022-11-29T18:59:17.213Z,98.50
2022-11-29T19:01:48.442Z,90.03
2022-11-29T19:04:18.327Z,88.17
2022-11-29T19:06:45.275Z,75.70
2022-11-29T19:09:14.686Z,70.43
2022-11-29T19:11:44.310Z,64.90
2022-11-29T19:14:12.812Z,69.43
2022-11-29T19:16:45.904Z,71.43
2022-11-29T19:19:13.447Z,77.30
2022-11-29T19:21:41.380Z,63.63
2022-11-29T19:24:14.026Z,59.20
2022-11-29T19:26:44.364Z,69.03
2022-11-29T19:29:11.890Z,73.63
2022-11-29T19:31:39.437Z,68.23
2022-11-29T19:34:06.512Z,91.83
2022-11-29T19:36:34.416Z,87.93
2022-11-29T19:39:02.257Z,104.90
2022-11-29T19:41:34.091Z,94.90
2022-11-29T19:44:05.481Z,56.33
2022-11-29T19:46:45.776Z,70.43
2022-11-29T19:49:13.321Z,74.27
2022-11-29T19:51:41.550Z,63.73
2022-11-29T19:54:10.601Z,85.70
2022-11-29T19:56:39.340Z,72.47
2022-11-29T19:59:10.280Z,74.03
2022-11-29T20:01:42.270Z,92.80
2022-11-29T20:04:11.636Z,78.80
2022-11-29T20:06:38.780Z,68.33
2022-11-29T20:09:06.634Z,68.90
2022-11-29T20:11:33.423Z,64.23
2022-11-29T20:14:01.805Z,70.20
2022-11-29T20:16:30.509Z,65.20
2022-11-29T20:18:58.777Z,69.27
2022-11-29T20:21:27.363Z,83.93
2022-11-29T20:24:20.517Z,65.90
2022-11-29T20:26:48.658Z,63.00
2022-11-29T20:29:19.346Z,75.87
2022-11-29T20:31:50.795Z,79.97
2022-11-29T20:34:19.151Z,83.93
2022-11-29T20:36:58.149Z,70.20
2022-11-29T20:39:33.409Z,73.13
2022-11-29T20:42:12.696Z,92.47
2022-11-29T20:44:56.822Z,95.27
2022-11-29T20:47:26.153Z,73.03
2022-11-29T20:49:57.208Z,87.83
2022-11-29T20:52:49.102Z,92.67
2022-11-29T20:55:27.923Z,89.27
2022-11-29T20:57:57.614Z,74.80
2022-11-29T21:00:24.635Z,79.10
2022-11-29T21:02:51.411Z,68.33
2022-11-29T21:05:18.200Z,68.93
2022-11-29T21:07:45.807Z,75.57
2022-11-29T21:10:14.891Z,74.20
2022-11-29T21:12:42.939Z,64.40
2022-11-29T21:15:11.403Z,65.20
2022-11-29T21:17:38.686Z,67.53
2022-11-29T21:20:06.849Z,61.87
2022-11-29T21:22:45.119Z,69.17
2022-11-29T21:25:36.618Z,64.20
2022-11-29T21:28:08.781Z,70.77
2022-11-29T21:30:38.560Z,64.87
2022-11-29T21:33:05.627Z,69.20
2022-11-29T21:35:32.446Z,65.03
2022-11-29T21:38:01.628Z,64.33
2022-11-29T21:40:30.935Z,62.93
2022-11-29T21:42:57.686Z,64.53
2022-11-29T21:45:27.425Z,74.07
2022-11-29T21:47:54.205Z,55.73
2022-11-29T21:50:20.986Z,66.33
2022-11-29T21:52:51.993Z,62.63
2022-11-29T21:55:18.723Z,67.20
2022-11-29T21:57:45.425Z,63.63
2022-11-29T22:00:12.610Z,68.20
2022-11-29T22:02:42.510Z,67.43
2022-11-29T22:05:09.681Z,58.13
2022-11-29T22:07:38.329Z,62.27
2022-11-29T22:10:11.577Z,56.87
2022-11-29T22:12:51.408Z,50.53
2022-11-29T22:15:25.101Z,47.90
2022-11-29T22:17:52.401Z,49.27
2022-11-29T22:20:19.745Z,48.07
2022-11-29T22:22:48.827Z,40.67
2022-11-29T22:25:18.778Z,41.23
2022-11-29T22:27:47.917Z,47.40
2022-11-29T22:30:20.225Z,50.17
2022-11-29T22:32:46.990Z,44.37
2022-11-29T22:35:13.719Z,39.63
2022-11-29T22:37:40.470Z,42.70
2022-11-29T22:40:07.625Z,43.40
2022-11-29T22:42:34.328Z,42.80
2022-11-29T22:45:02.169Z,44.90
2022-11-29T22:47:35.309Z,39.53
2022-11-29T22:50:02.011Z,42.57
2022-11-29T22:52:28.741Z,38.27
2022-11-29T22:55:05.014Z,38.30
2022-11-29T22:57:53.414Z,44.30
2022-11-29T23:00:20.249Z,38.03
2022-11-29T23:02:46.922Z,39.83
2022-11-29T23:05:14.719Z,34.83
2022-11-29T23:07:41.498Z,38.37
2022-11-29T23:10:08.835Z,36.03
2022-11-29T23:12:37.663Z,37.40
2022-11-29T23:15:04.753Z,35.27
2022-11-29T23:17:31.445Z,36.43
2022-11-29T23:19:58.362Z,31.53
2022-11-29T23:22:25.100Z,34.07
2022-11-29T23:24:51.882Z,34.13
2022-11-29T23:27:18.596Z,32.37
2022-11-29T23:29:45.364Z,30.17
2022-11-29T23:32:12.138Z,35.43
2022-11-29T23:34:38.869Z,31.00
2022-11-29T23:37:05.586Z,27.23
2022-11-29T23:39:32.288Z,32.83
2022-11-29T23:41:59.014Z,26.33
2022-11-29T23:44:25.841Z,27.53
2022-11-29T23:46:55.628Z,30.87
2022-11-29T23:49:22.362Z,28.90
2022-11-29T23:51:49.057Z,29.47
2022-11-29T23:54:18.036Z,26.50
2022-11-29T23:56:44.999Z,27.23
2022-11-29T23:59:13.162Z,32.10
